Time;durP1;ratioP1;P1;durP2;ratioP2;P2;SDS_P1;SDS_P2;PMS_P1;PMS_P2;Temp;Humidity;BMP_temperature;BMP_pressure;BME280_temperature;BME280_humidity;BME280_pressure;Samples;Min_cycle;Max_cycle;Signal;HPM_P1;HPM_P2
2023/07/17 00:00:22;;;;;;;4.68;3.17;;;;;;;;;;5073770;28;20223;-41
2023/07/17 00:03:09;;;;;;;3.88;2.95;;;;;;;;;;5073632;28;20241;-42
2023/07/17 00:05:37;;;;;;;4.25;3.33;;;;;;;;;;5073354;28;20663;-40
2023/07/17 00:08:05;;;;;;;5.38;3.33;;;;;;;;;;5073386;28;20659;-42
2023/07/17 00:10:32;;;;;;;3.88;3.10;;;;;;;;;;5073332;28;20261;-42
2023/07/17 00:12:59;;;;;;;3.78;3.17;;;;;;;;;;5073186;28;20199;-43
2023/07/17 00:15:26;;;;;;;3.30;2.92;;;;;;;;;;5073154;28;20661;-42
2023/07/17 00:17:54;;;;;;;3.83;3.00;;;;;;;;;;5073185;28;20652;-43
2023/07/17 00:20:22;;;;;;;4.70;3.40;;;;;;;;;;5073465;28;20207;-42
2023/07/17 00:22:49;;;;;;;4.40;3.40;;;;;;;;;;5073562;28;20238;-42
2023/07/17 00:25:17;;;;;;;4.95;3.40;;;;;;;;;;5073220;28;20207;-41
2023/07/17 00:27:44;;;;;;;3.40;3.10;;;;;;;;;;5076407;28;20210;-43
2023/07/17 00:30:12;;;;;;;4.25;3.45;;;;;;;;;;5076096;28;20203;-42
2023/07/17 00:32:39;;;;;;;3.88;3.30;;;;;;;;;;5077290;28;20201;-41
2023/07/17 00:35:07;;;;;;;4.07;2.97;;;;;;;;;;5075916;28;20687;-42
2023/07/17 00:37:34;;;;;;;4.55;3.22;;;;;;;;;;5077129;28;20214;-42
2023/07/17 00:40:04;;;;;;;3.97;3.40;;;;;;;;;;5077254;28;20206;-42
2023/07/17 00:42:31;;;;;;;4.15;3.58;;;;;;;;;;5076403;28;20231;-42
2023/07/17 00:44:58;;;;;;;4.05;2.85;;;;;;;;;;5077035;28;20199;-42
2023/07/17 00:47:26;;;;;;;4.25;3.38;;;;;;;;;;5076997;28;20250;-42
2023/07/17 00:49:54;;;;;;;3.75;3.08;;;;;;;;;;5059540;28;20207;-43
2023/07/17 00:52:21;;;;;;;4.20;3.33;;;;;;;;;;5077218;28;20563;-41
2023/07/17 00:54:50;;;;;;;4.93;3.20;;;;;;;;;;5059363;28;20199;-41
2023/07/17 00:57:17;;;;;;;4.15;3.30;;;;;;;;;;5075706;28;20210;-41
2023/07/17 00:59:45;;;;;;;4.32;3.28;;;;;;;;;;5075448;28;20229;-41
2023/07/17 01:02:13;;;;;;;4.75;3.50;;;;;;;;;;5075438;28;20195;-41
2023/07/17 01:04:44;;;;;;;5.13;3.10;;;;;;;;;;5059347;28;20261;-42
2023/07/17 01:07:14;;;;;;;4.43;3.05;;;;;;;;;;5076496;28;20663;-40
2023/07/17 01:09:41;;;;;;;5.57;3.22;;;;;;;;;;5076626;28;20215;-43
2023/07/17 01:12:09;;;;;;;4.65;3.10;;;;;;;;;;5075341;28;20581;-42
2023/07/17 01:14:36;;;;;;;3.75;3.15;;;;;;;;;;5076747;28;20199;-42
2023/07/17 01:17:05;;;;;;;4.38;3.05;;;;;;;;;;5075509;28;20203;-42
2023/07/17 01:19:33;;;;;;;3.65;3.25;;;;;;;;;;5075360;28;20203;-42
2023/07/17 01:22:04;;;;;;;3.40;2.95;;;;;;;;;;5076192;28;20239;-41
2023/07/17 01:24:31;;;;;;;4.90;3.22;;;;;;;;;;5076325;28;20679;-41
2023/07/17 01:26:58;;;;;;;4.65;2.63;;;;;;;;;;5076168;28;20216;-42
2023/07/17 01:29:26;;;;;;;3.80;2.80;;;;;;;;;;5075414;28;20207;-42
2023/07/17 01:31:53;;;;;;;4.70;2.47;;;;;;;;;;5074878;28;20686;-42
2023/07/17 01:34:20;;;;;;;3.67;2.80;;;;;;;;;;5076167;28;20664;-42
2023/07/17 01:36:47;;;;;;;4.38;3.15;;;;;;;;;;5076125;28;20234;-42
2023/07/17 01:39:15;;;;;;;4.93;2.75;;;;;;;;;;5075190;28;20203;-43
2023/07/17 01:41:41;;;;;;;4.18;2.80;;;;;;;;;;5075958;28;20206;-42
2023/07/17 01:44:09;;;;;;;3.33;3.00;;;;;;;;;;5076119;28;20203;-42
2023/07/17 01:46:36;;;;;;;3.30;2.95;;;;;;;;;;5074888;28;20203;-42
2023/07/17 01:49:03;;;;;;;4.00;3.13;;;;;;;;;;5076023;28;20211;-41
2023/07/17 01:51:30;;;;;;;4.32;2.75;;;;;;;;;;5075541;28;20668;-42
2023/07/17 01:53:57;;;;;;;3.45;2.88;;;;;;;;;;5075589;28;20207;-42
2023/07/17 01:56:24;;;;;;;4.82;2.88;;;;;;;;;;5074407;28;20231;-43
2023/07/17 01:58:52;;;;;;;3.83;2.80;;;;;;;;;;5074284;28;20199;-43
2023/07/17 02:01:19;;;;;;;2.97;2.60;;;;;;;;;;5075316;28;20613;-41
2023/07/17 02:03:47;;;;;;;5.25;3.22;;;;;;;;;;5075306;28;20605;-42
2023/07/17 02:06:13;;;;;;;4.95;2.95;;;;;;;;;;5075171;28;20207;-43
2023/07/17 02:08:41;;;;;;;4.05;2.90;;;;;;;;;;5075178;28;20211;-42
2023/07/17 02:11:08;;;;;;;3.90;2.80;;;;;;;;;;5075649;28;20199;-42
2023/07/17 02:13:35;;;;;;;3.55;2.92;;;;;;;;;;5075101;28;20210;-42
2023/07/17 02:16:02;;;;;;;5.07;2.78;;;;;;;;;;5073773;28;20741;-43
2023/07/17 02:18:31;;;;;;;4.63;2.50;;;;;;;;;;5074992;28;20203;-41
2023/07/17 02:20:59;;;;;;;4.57;2.83;;;;;;;;;;5073789;28;20235;-42
2023/07/17 02:23:27;;;;;;;3.95;2.92;;;;;;;;;;5074037;28;20207;-40
2023/07/17 02:25:53;;;;;;;3.25;2.85;;;;;;;;;;5075200;28;20239;-42
2023/07/17 02:28:21;;;;;;;3.47;2.47;;;;;;;;;;5075088;28;20554;-39
2023/07/17 02:30:48;;;;;;;3.63;2.60;;;;;;;;;;5075022;28;20203;-40
2023/07/17 02:33:15;;;;;;;4.47;3.30;;;;;;;;;;5074825;28;20215;-41
2023/07/17 02:35:44;;;;;;;4.72;3.25;;;;;;;;;;5074551;28;20620;-42
2023/07/17 02:38:11;;;;;;;4.30;3.03;;;;;;;;;;5074618;28;20207;-42
2023/07/17 02:40:38;;;;;;;4.22;2.63;;;;;;;;;;5075187;28;20211;-41
2023/07/17 02:43:07;;;;;;;7.93;3.15;;;;;;;;;;5074486;28;20671;-42
2023/07/17 02:45:34;;;;;;;3.40;3.08;;;;;;;;;;5074810;28;20209;-43
2023/07/17 02:48:01;;;;;;;3.70;2.95;;;;;;;;;;5074432;28;20216;-42
2023/07/17 02:50:28;;;;;;;4.35;2.83;;;;;;;;;;5073336;28;20676;-40
2023/07/17 02:52:56;;;;;;;4.20;2.80;;;;;;;;;;5074507;28;20268;-43
2023/07/17 02:55:23;;;;;;;6.57;3.10;;;;;;;;;;5074487;28;20200;-41
2023/07/17 02:57:51;;;;;;;6.57;2.65;;;;;;;;;;5073943;28;20211;-42
2023/07/17 03:00:18;;;;;;;6.43;3.35;;;;;;;;;;5072527;28;20717;-44
2023/07/17 03:02:46;;;;;;;3.28;2.97;;;;;;;;;;5072456;28;20195;-42
2023/07/17 03:05:14;;;;;;;3.38;3.08;;;;;;;;;;5072977;28;20223;-42
2023/07/17 03:07:44;;;;;;;4.50;3.30;;;;;;;;;;5072783;28;20199;-33
2023/07/17 03:10:12;;;;;;;4.32;2.95;;;;;;;;;;5073138;28;20207;-34
2023/07/17 03:12:39;;;;;;;4.18;3.00;;;;;;;;;;5073196;28;20203;-38
2023/07/17 03:15:08;;;;;;;5.43;2.90;;;;;;;;;;5073058;28;20203;-38
2023/07/17 03:17:35;;;;;;;4.07;3.28;;;;;;;;;;5072891;28;20604;-40
2023/07/17 03:20:08;;;;;;;3.92;2.85;;;;;;;;;;5073129;28;20207;-39
2023/07/17 03:22:37;;;;;;;3.47;2.80;;;;;;;;;;5072723;28;20583;-38
2023/07/17 03:25:05;;;;;;;3.13;2.67;;;;;;;;;;5073923;28;20203;-35
2023/07/17 03:27:33;;;;;;;3.42;2.50;;;;;;;;;;5072771;28;20211;-38
2023/07/17 03:30:01;;;;;;;4.35;3.05;;;;;;;;;;5072690;28;20286;-42
2023/07/17 03:32:32;;;;;;;4.32;2.58;;;;;;;;;;5072602;28;20195;-40
2023/07/17 03:34:59;;;;;;;2.95;2.63;;;;;;;;;;5073452;28;20205;-39
2023/07/17 03:37:27;;;;;;;3.58;2.63;;;;;;;;;;5099876;28;20223;-35
2023/07/17 03:39:56;;;;;;;3.80;3.15;;;;;;;;;;5072816;28;20211;-42
2023/07/17 03:42:24;;;;;;;5.50;3.15;;;;;;;;;;5073647;28;20555;-42
2023/07/17 03:44:51;;;;;;;4.72;2.75;;;;;;;;;;5073569;28;20679;-42
2023/07/17 03:47:20;;;;;;;4.78;2.80;;;;;;;;;;5076588;28;20294;-39
2023/07/17 03:49:47;;;;;;;4.63;3.20;;;;;;;;;;5079787;28;20199;-38
2023/07/17 03:52:14;;;;;;;5.20;3.00;;;;;;;;;;5082697;28;20203;-38
2023/07/17 03:54:41;;;;;;;3.13;2.75;;;;;;;;;;5073846;28;20203;-42
2023/07/17 03:57:09;;;;;;;3.40;2.65;;;;;;;;;;5057583;28;20220;-39
2023/07/17 03:59:53;;;;;;;3.38;2.10;;;;;;;;;;5065637;28;20214;-41
2023/07/17 04:02:39;;;;;;;3.95;2.45;;;;;;;;;;5053185;28;20664;-43
2023/07/17 04:05:10;;;;;;;3.65;2.83;;;;;;;;;;5055359;28;20237;-38
2023/07/17 04:07:37;;;;;;;3.08;2.30;;;;;;;;;;5072288;28;20206;-40
2023/07/17 04:10:05;;;;;;;2.17;1.90;;;;;;;;;;5070849;28;20629;-35
2023/07/17 04:12:32;;;;;;;3.88;2.30;;;;;;;;;;5063964;28;20215;-39
2023/07/17 04:14:59;;;;;;;3.22;2.40;;;;;;;;;;5064953;28;20243;-34
2023/07/17 04:17:27;;;;;;;3.08;2.63;;;;;;;;;;5066602;28;20243;-38
2023/07/17 04:19:54;;;;;;;4.07;2.47;;;;;;;;;;5070863;28;20707;-38
2023/07/17 04:22:21;;;;;;;3.03;2.60;;;;;;;;;;5070833;28;20245;-39
2023/07/17 04:24:49;;;;;;;2.47;2.20;;;;;;;;;;5058415;28;20269;-39
2023/07/17 04:27:16;;;;;;;3.25;2.65;;;;;;;;;;5070869;28;20242;-39
2023/07/17 04:29:46;;;;;;;2.72;2.30;;;;;;;;;;5071320;28;20222;-37
2023/07/17 04:32:13;;;;;;;3.78;2.38;;;;;;;;;;5071081;28;20219;-36
2023/07/17 04:34:40;;;;;;;3.95;2.63;;;;;;;;;;5071501;28;20223;-38
2023/07/17 04:37:09;;;;;;;3.72;2.42;;;;;;;;;;5073059;28;20666;-37
2023/07/17 04:39:36;;;;;;;2.42;2.10;;;;;;;;;;5058221;28;20575;-37
2023/07/17 04:42:05;;;;;;;2.97;2.17;;;;;;;;;;5059210;28;20305;-36
2023/07/17 04:44:33;;;;;;;2.40;2.10;;;;;;;;;;5065446;28;20212;-42
2023/07/17 04:47:02;;;;;;;4.95;4.40;;;;;;;;;;5050650;28;20242;-37
2023/07/17 04:49:29;;;;;;;2.95;2.25;;;;;;;;;;5051219;28;20222;-37
2023/07/17 04:51:57;;;;;;;3.08;2.10;;;;;;;;;;5073750;28;20223;-35
2023/07/17 04:54:24;;;;;;;2.22;2.00;;;;;;;;;;5073478;28;20222;-39
2023/07/17 04:56:51;;;;;;;2.25;1.85;;;;;;;;;;5070266;28;20242;-37
2023/07/17 04:59:21;;;;;;;2.40;1.90;;;;;;;;;;5071071;28;20633;-38
2023/07/17 05:01:48;;;;;;;2.13;1.70;;;;;;;;;;5070787;28;20215;-37
2023/07/17 05:04:15;;;;;;;2.25;1.58;;;;;;;;;;5071222;28;20294;-39
2023/07/17 05:06:43;;;;;;;2.25;1.60;;;;;;;;;;5070899;28;20280;-38
2023/07/17 05:09:10;;;;;;;1.85;1.63;;;;;;;;;;5070189;28;20220;-36
2023/07/17 05:11:41;;;;;;;2.28;1.50;;;;;;;;;;5070212;28;20215;-37
2023/07/17 05:14:09;;;;;;;2.47;1.48;;;;;;;;;;5071858;28;21364;-40
2023/07/17 05:16:37;;;;;;;1.65;1.30;;;;;;;;;;5071613;28;20699;-35
2023/07/17 05:19:04;;;;;;;1.88;1.40;;;;;;;;;;5074977;28;20269;-38
2023/07/17 05:21:33;;;;;;;1.67;1.55;;;;;;;;;;5074980;28;20234;-39
2023/07/17 05:24:02;;;;;;;3.10;1.70;;;;;;;;;;5075086;28;20199;-39
2023/07/17 05:26:31;;;;;;;2.33;1.23;;;;;;;;;;5075093;28;20199;-35
2023/07/17 05:28:58;;;;;;;2.05;1.30;;;;;;;;;;5074990;28;20234;-38
2023/07/17 05:31:26;;;;;;;2.40;1.30;;;;;;;;;;5075064;28;20208;-36
2023/07/17 05:33:55;;;;;;;1.65;1.23;;;;;;;;;;5075039;28;20237;-38
2023/07/17 05:36:23;;;;;;;1.38;1.02;;;;;;;;;;5074927;28;20253;-36
2023/07/17 05:38:50;;;;;;;1.58;1.38;;;;;;;;;;5074988;28;20226;-39
2023/07/17 05:41:18;;;;;;;3.30;1.25;;;;;;;;;;5074764;28;20203;-39
2023/07/17 05:43:45;;;;;;;2.85;1.05;;;;;;;;;;5071446;28;20203;-39
2023/07/17 05:46:16;;;;;;;1.48;1.10;;;;;;;;;;5064086;28;20652;-40
2023/07/17 05:48:43;;;;;;;1.50;1.20;;;;;;;;;;5064997;28;20203;-41
2023/07/17 05:51:11;;;;;;;1.27;1.10;;;;;;;;;;5063485;28;20208;-36
2023/07/17 05:53:38;;;;;;;2.03;1.13;;;;;;;;;;5062767;28;20207;-36
2023/07/17 05:56:06;;;;;;;1.50;1.20;;;;;;;;;;5064891;28;20668;-33
2023/07/17 05:58:36;;;;;;;1.33;1.02;;;;;;;;;;5064082;28;20623;-38
2023/07/17 06:01:04;;;;;;;1.77;1.25;;;;;;;;;;5062724;28;20704;-40
2023/07/17 06:03:31;;;;;;;1.42;1.00;;;;;;;;;;5064377;28;20202;-40
2023/07/17 06:05:58;;;;;;;2.28;1.23;;;;;;;;;;5065301;28;20200;-38
2023/07/17 06:08:25;;;;;;;2.65;1.27;;;;;;;;;;5063725;28;20677;-38
2023/07/17 06:10:52;;;;;;;3.20;0.93;;;;;;;;;;5065306;28;20198;-37
2023/07/17 06:13:20;;;;;;;1.67;0.82;;;;;;;;;;5065658;28;20192;-41
2023/07/17 06:15:48;;;;;;;2.42;1.17;;;;;;;;;;5063530;28;20202;-41
2023/07/17 06:18:15;;;;;;;1.23;0.93;;;;;;;;;;5064971;28;20207;-38
2023/07/17 06:20:42;;;;;;;0.90;0.75;;;;;;;;;;5065405;28;20207;-42
2023/07/17 06:23:09;;;;;;;1.38;1.27;;;;;;;;;;5066250;28;20683;-40
2023/07/17 06:25:38;;;;;;;1.25;0.95;;;;;;;;;;5063904;28;20531;-38
2023/07/17 06:28:07;;;;;;;1.48;1.27;;;;;;;;;;5064114;28;20207;-40
2023/07/17 06:30:34;;;;;;;1.25;1.08;;;;;;;;;;5065945;28;20238;-40
2023/07/17 06:33:01;;;;;;;1.05;0.85;;;;;;;;;;5074200;28;20297;-37
2023/07/17 06:35:28;;;;;;;1.30;1.05;;;;;;;;;;5073332;28;20227;-41
2023/07/17 06:37:55;;;;;;;1.20;1.00;;;;;;;;;;5073799;28;20281;-41
2023/07/17 06:40:22;;;;;;;3.05;0.98;;;;;;;;;;5073313;28;20730;-43
2023/07/17 06:42:49;;;;;;;1.35;1.10;;;;;;;;;;5067291;28;20224;-40
2023/07/17 06:45:17;;;;;;;1.65;1.02;;;;;;;;;;5066755;28;20223;-40
2023/07/17 06:47:44;;;;;;;5.88;1.17;;;;;;;;;;5072664;28;20254;-40
2023/07/17 06:50:11;;;;;;;1.92;1.27;;;;;;;;;;5073431;28;20234;-38
2023/07/17 06:52:38;;;;;;;1.25;0.85;;;;;;;;;;5073582;28;20216;-41
2023/07/17 06:55:07;;;;;;;1.10;1.00;;;;;;;;;;5073569;28;20798;-43
2023/07/17 06:57:34;;;;;;;1.40;1.10;;;;;;;;;;5073319;28;20235;-42
2023/07/17 07:00:05;;;;;;;1.30;1.20;;;;;;;;;;5072777;28;20234;-39
2023/07/17 07:02:32;;;;;;;2.25;1.00;;;;;;;;;;5073543;28;20233;-41
2023/07/17 07:05:00;;;;;;;1.38;1.10;;;;;;;;;;5073847;28;20249;-39
2023/07/17 07:07:27;;;;;;;1.00;0.90;;;;;;;;;;5073216;28;20228;-39
2023/07/17 07:09:54;;;;;;;1.60;0.90;;;;;;;;;;5064334;28;20219;-38
2023/07/17 07:12:21;;;;;;;1.35;1.05;;;;;;;;;;5071923;28;20254;-37
2023/07/17 07:14:49;;;;;;;1.15;1.00;;;;;;;;;;5066667;28;20207;-42
2023/07/17 07:17:16;;;;;;;1.85;1.25;;;;;;;;;;5062377;28;20245;-44
2023/07/17 07:19:43;;;;;;;1.67;1.05;;;;;;;;;;5066691;28;20223;-42
2023/07/17 07:22:10;;;;;;;1.50;1.08;;;;;;;;;;5061267;28;20223;-41
2023/07/17 07:24:41;;;;;;;2.88;1.30;;;;;;;;;;5061023;28;20260;-38
2023/07/17 07:27:08;;;;;;;1.35;1.00;;;;;;;;;;5058949;28;20228;-40
2023/07/17 07:29:35;;;;;;;0.95;0.88;;;;;;;;;;5055547;28;20223;-39
2023/07/17 07:32:03;;;;;;;1.48;0.93;;;;;;;;;;5062553;28;20873;-40
2023/07/17 07:34:30;;;;;;;1.10;0.98;;;;;;;;;;5061988;28;20645;-40
2023/07/17 07:36:57;;;;;;;1.05;0.95;;;;;;;;;;5065963;28;20226;-44
2023/07/17 07:39:24;;;;;;;1.80;1.20;;;;;;;;;;5062489;28;20204;-44
2023/07/17 07:41:52;;;;;;;1.10;0.95;;;;;;;;;;5065705;28;20196;-36
2023/07/17 07:44:19;;;;;;;0.90;0.80;;;;;;;;;;5070777;28;20668;-36
2023/07/17 07:46:46;;;;;;;1.63;1.20;;;;;;;;;;5072798;28;20211;-36
2023/07/17 07:49:13;;;;;;;0.88;0.88;;;;;;;;;;5072853;28;20207;-36
2023/07/17 07:51:40;;;;;;;1.23;1.13;;;;;;;;;;5073260;28;20203;-36
2023/07/17 07:54:07;;;;;;;1.45;1.15;;;;;;;;;;5073035;28;20195;-37
2023/07/17 07:56:47;;;;;;;1.75;1.20;;;;;;;;;;5072898;28;20647;-36
2023/07/17 07:59:14;;;;;;;3.90;1.00;;;;;;;;;;5073173;28;20204;-36
2023/07/17 08:01:41;;;;;;;1.80;1.40;;;;;;;;;;5072718;28;20663;-40
2023/07/17 08:04:08;;;;;;;1.77;1.10;;;;;;;;;;5073154;28;20664;-36
2023/07/17 08:06:35;;;;;;;1.02;0.90;;;;;;;;;;5073263;28;20233;-35
2023/07/17 08:09:03;;;;;;;2.03;1.20;;;;;;;;;;5073011;28;20199;-36
2023/07/17 08:11:30;;;;;;;2.50;1.23;;;;;;;;;;5073257;28;20661;-36
2023/07/17 08:13:57;;;;;;;1.42;1.20;;;;;;;;;;5058269;28;20204;-34
2023/07/17 08:16:24;;;;;;;1.92;1.30;;;;;;;;;;5062516;28;20287;-34
2023/07/17 08:18:52;;;;;;;1.92;1.20;;;;;;;;;;5063725;28;20220;-35
2023/07/17 08:21:19;;;;;;;1.50;1.00;;;;;;;;;;5061881;28;20220;-35
2023/07/17 08:23:46;;;;;;;1.10;1.00;;;;;;;;;;5061958;28;20195;-35
2023/07/17 08:26:13;;;;;;;1.73;1.00;;;;;;;;;;5065046;28;20601;-35
2023/07/17 08:28:40;;;;;;;2.03;1.33;;;;;;;;;;5060317;28;20211;-34
2023/07/17 08:31:07;;;;;;;1.38;1.05;;;;;;;;;;5061762;28;20261;-34
2023/07/17 08:33:34;;;;;;;1.75;1.33;;;;;;;;;;5059535;28;20253;-35
2023/07/17 08:36:02;;;;;;;1.77;1.02;;;;;;;;;;5062905;28;20282;-35
2023/07/17 08:38:30;;;;;;;4.05;1.30;;;;;;;;;;5063977;28;20226;-34
2023/07/17 08:40:59;;;;;;;3.38;1.50;;;;;;;;;;5065537;28;20218;-36
2023/07/17 08:43:27;;;;;;;1.90;1.20;;;;;;;;;;5062503;28;20652;-34
2023/07/17 08:45:55;;;;;;;2.63;1.20;;;;;;;;;;5061052;28;20278;-34
2023/07/17 08:48:27;;;;;;;2.17;1.10;;;;;;;;;;5064936;28;20203;-35
2023/07/17 08:50:56;;;;;;;1.42;0.90;;;;;;;;;;5064091;28;20192;-35
2023/07/17 08:53:27;;;;;;;2.42;1.30;;;;;;;;;;5065920;28;20534;-35
2023/07/17 08:55:56;;;;;;;2.00;1.33;;;;;;;;;;5066468;28;20191;-34
2023/07/17 08:58:24;;;;;;;1.30;1.10;;;;;;;;;;5064881;28;20235;-35
2023/07/17 09:00:51;;;;;;;2.65;1.20;;;;;;;;;;5067960;28;20249;-33
2023/07/17 09:03:19;;;;;;;1.55;1.10;;;;;;;;;;5075790;28;20207;-33
2023/07/17 09:05:46;;;;;;;2.28;1.35;;;;;;;;;;5076387;28;20230;-34
2023/07/17 09:08:14;;;;;;;1.05;0.93;;;;;;;;;;5074063;28;20200;-34
2023/07/17 09:10:41;;;;;;;1.77;1.38;;;;;;;;;;5056220;28;20231;-34
2023/07/17 09:13:09;;;;;;;1.35;1.10;;;;;;;;;;5060901;28;20685;-34
2023/07/17 09:15:36;;;;;;;2.20;1.20;;;;;;;;;;5056230;28;20208;-35
2023/07/17 09:18:04;;;;;;;2.10;1.27;;;;;;;;;;5054003;28;20285;-33
2023/07/17 09:20:31;;;;;;;1.45;1.15;;;;;;;;;;5056472;28;20645;-34
2023/07/17 09:23:00;;;;;;;1.20;1.10;;;;;;;;;;5056316;28;20207;-34
2023/07/17 09:25:28;;;;;;;1.90;1.23;;;;;;;;;;5056413;28;20547;-34
2023/07/17 09:27:57;;;;;;;1.40;1.30;;;;;;;;;;5056091;28;20212;-33
2023/07/17 09:30:26;;;;;;;1.33;1.23;;;;;;;;;;5058706;28;20283;-33
2023/07/17 09:33:04;;;;;;;1.60;1.23;;;;;;;;;;5056089;28;20201;-33
2023/07/17 09:35:31;;;;;;;1.50;1.23;;;;;;;;;;5056158;28;20206;-33
2023/07/17 09:37:59;;;;;;;1.98;1.10;;;;;;;;;;5054199;28;20727;-33
2023/07/17 09:40:27;;;;;;;2.45;1.40;;;;;;;;;;5055836;28;20208;-33
2023/07/17 09:42:56;;;;;;;2.25;1.38;;;;;;;;;;5056085;28;20227;-33
2023/07/17 09:45:24;;;;;;;2.47;1.45;;;;;;;;;;5056203;28;20210;-33
2023/07/17 09:47:51;;;;;;;1.95;1.23;;;;;;;;;;5056109;28;20720;-33
2023/07/17 09:50:20;;;;;;;1.70;1.17;;;;;;;;;;5055788;28;20687;-33
2023/07/17 09:52:49;;;;;;;1.65;1.30;;;;;;;;;;5056015;28;20211;-33
2023/07/17 09:55:19;;;;;;;3.30;1.60;;;;;;;;;;5055767;28;20208;-33
2023/07/17 09:57:47;;;;;;;1.85;1.20;;;;;;;;;;5055679;28;20231;-33
2023/07/17 10:00:18;;;;;;;1.60;1.00;;;;;;;;;;5054187;28;20211;-33
2023/07/17 10:02:55;;;;;;;1.40;1.30;;;;;;;;;;5054617;28;20258;-33
2023/07/17 10:05:22;;;;;;;1.77;1.25;;;;;;;;;;5070522;28;20241;-33
2023/07/17 10:07:50;;;;;;;1.77;1.20;;;;;;;;;;5055545;28;20314;-33
2023/07/17 10:10:18;;;;;;;2.25;1.25;;;;;;;;;;5055409;28;20606;-33
2023/07/17 10:12:45;;;;;;;1.08;0.90;;;;;;;;;;5055763;28;20203;-33
2023/07/17 10:15:14;;;;;;;1.55;1.10;;;;;;;;;;5055290;28;20207;-33
2023/07/17 10:17:41;;;;;;;1.73;1.10;;;;;;;;;;5055251;28;20224;-33
2023/07/17 10:20:10;;;;;;;1.20;1.00;;;;;;;;;;5055548;28;20200;-44
2023/07/17 10:22:43;;;;;;;3.33;1.10;;;;;;;;;;5055628;28;20238;-43
2023/07/17 10:25:19;;;;;;;1.63;1.20;;;;;;;;;;5055551;28;20246;-42
2023/07/17 10:27:58;;;;;;;2.03;1.10;;;;;;;;;;5055249;28;20218;-40
2023/07/17 10:30:31;;;;;;;0.95;0.82;;;;;;;;;;5055222;28;20258;-42
2023/07/17 10:33:15;;;;;;;1.58;1.10;;;;;;;;;;5055079;28;20714;-44
2023/07/17 10:35:44;;;;;;;2.03;1.10;;;;;;;;;;5055173;28;20208;-40
2023/07/17 10:38:16;;;;;;;1.90;1.25;;;;;;;;;;5055001;28;20232;-41
2023/07/17 10:40:44;;;;;;;1.50;1.23;;;;;;;;;;5054836;28;20228;-41
2023/07/17 10:43:19;;;;;;;2.30;1.50;;;;;;;;;;5054717;28;20555;-41
2023/07/17 10:45:47;;;;;;;1.73;1.13;;;;;;;;;;5055330;28;20208;-43
2023/07/17 10:48:15;;;;;;;2.28;0.90;;;;;;;;;;5063811;28;20200;-41
2023/07/17 10:50:48;;;;;;;1.73;1.05;;;;;;;;;;5065102;28;20241;-42
2023/07/17 10:53:15;;;;;;;2.72;1.40;;;;;;;;;;5064590;28;20191;-41
2023/07/17 10:55:43;;;;;;;2.17;1.00;;;;;;;;;;5060655;28;20242;-44
2023/07/17 10:58:10;;;;;;;1.52;1.00;;;;;;;;;;5072388;28;20598;-41
2023/07/17 11:00:42;;;;;;;1.90;1.10;;;;;;;;;;5073380;28;20245;-41
2023/07/17 11:03:12;;;;;;;1.38;1.08;;;;;;;;;;5073539;28;20271;-40
2023/07/17 11:05:40;;;;;;;3.00;1.42;;;;;;;;;;5073232;28;20239;-40
2023/07/17 11:08:09;;;;;;;1.10;1.00;;;;;;;;;;5073520;28;21299;-41
2023/07/17 11:10:40;;;;;;;1.35;1.00;;;;;;;;;;5072328;28;20648;-40
2023/07/17 11:13:07;;;;;;;1.67;1.08;;;;;;;;;;5073377;28;20231;-40
2023/07/17 11:15:35;;;;;;;1.83;0.90;;;;;;;;;;5073441;28;20239;-40
2023/07/17 11:18:04;;;;;;;1.25;1.02;;;;;;;;;;5073451;28;20239;-42
2023/07/17 11:20:32;;;;;;;1.27;1.10;;;;;;;;;;5072881;28;20573;-40
2023/07/17 11:23:00;;;;;;;2.00;1.15;;;;;;;;;;5073579;28;20219;-41
2023/07/17 11:25:28;;;;;;;2.78;1.55;;;;;;;;;;5072979;28;20219;-41
2023/07/17 11:27:58;;;;;;;2.53;1.73;;;;;;;;;;5073096;28;20231;-40
2023/07/17 11:30:27;;;;;;;2.55;1.45;;;;;;;;;;5073379;28;20227;-40
2023/07/17 11:32:58;;;;;;;2.42;2.00;;;;;;;;;;5072697;28;20229;-40
2023/07/17 11:35:43;;;;;;;2.30;2.10;;;;;;;;;;5073284;28;20233;-41
2023/07/17 11:38:15;;;;;;;2.33;1.83;;;;;;;;;;5073341;28;20239;-40
2023/07/17 11:40:55;;;;;;;2.92;2.08;;;;;;;;;;5072735;28;20250;-40
2023/07/17 11:43:35;;;;;;;2.80;1.95;;;;;;;;;;5053275;28;20224;-41
2023/07/17 11:46:05;;;;;;;3.55;2.10;;;;;;;;;;5059757;28;20269;-42
2023/07/17 11:48:37;;;;;;;4.05;2.40;;;;;;;;;;5073279;28;20223;-41
2023/07/17 11:51:05;;;;;;;3.75;2.30;;;;;;;;;;5071368;28;20273;-43
2023/07/17 11:53:35;;;;;;;3.28;2.47;;;;;;;;;;5072739;28;20699;-40
2023/07/17 11:56:03;;;;;;;2.50;2.30;;;;;;;;;;5072588;28;20230;-42
2023/07/17 11:58:34;;;;;;;4.10;2.80;;;;;;;;;;5072488;28;20241;-41
2023/07/17 12:01:05;;;;;;;4.20;2.90;;;;;;;;;;5071859;28;20223;-42
2023/07/17 12:03:32;;;;;;;3.78;3.10;;;;;;;;;;5072528;28;20699;-41
2023/07/17 12:05:59;;;;;;;3.35;2.42;;;;;;;;;;5072556;28;20707;-43
2023/07/17 12:08:27;;;;;;;5.70;2.60;;;;;;;;;;5071437;28;20557;-42
2023/07/17 12:10:55;;;;;;;4.07;2.83;;;;;;;;;;5070139;28;20222;-40
2023/07/17 12:13:22;;;;;;;4.55;2.70;;;;;;;;;;5065505;28;20761;-43
2023/07/17 12:15:50;;;;;;;4.07;2.83;;;;;;;;;;5072349;28;20222;-42
2023/07/17 12:18:17;;;;;;;3.65;2.42;;;;;;;;;;5071903;28;20226;-41
2023/07/17 12:20:44;;;;;;;4.00;2.65;;;;;;;;;;5065317;28;20230;-44
2023/07/17 12:23:12;;;;;;;5.72;2.78;;;;;;;;;;5054110;28;20227;-43
2023/07/17 12:25:41;;;;;;;5.30;2.55;;;;;;;;;;5071890;28;20223;-43
2023/07/17 12:28:09;;;;;;;2.90;1.98;;;;;;;;;;5082037;28;20226;-43
2023/07/17 12:30:36;;;;;;;4.20;2.50;;;;;;;;;;5066779;28;20265;-44
2023/07/17 12:33:04;;;;;;;2.30;2.08;;;;;;;;;;5062142;28;20229;-44
2023/07/17 12:35:31;;;;;;;3.92;2.13;;;;;;;;;;5070798;28;20547;-44
2023/07/17 12:37:58;;;;;;;3.10;2.47;;;;;;;;;;5059666;28;20219;-42
2023/07/17 12:40:25;;;;;;;3.72;1.90;;;;;;;;;;5061225;28;20231;-43
2023/07/17 12:42:53;;;;;;;3.53;2.20;;;;;;;;;;5060938;28;20215;-44
2023/07/17 12:45:20;;;;;;;2.60;1.95;;;;;;;;;;5062712;28;20207;-43
2023/07/17 12:47:47;;;;;;;2.45;2.13;;;;;;;;;;5061857;28;20228;-44
2023/07/17 12:50:14;;;;;;;2.28;1.77;;;;;;;;;;5062753;28;20219;-44
2023/07/17 12:52:41;;;;;;;1.67;1.52;;;;;;;;;;5053363;28;20234;-44
2023/07/17 12:55:08;;;;;;;1.98;1.58;;;;;;;;;;5068851;28;20701;-43
2023/07/17 12:57:36;;;;;;;2.95;2.00;;;;;;;;;;5065187;28;20626;-44
2023/07/17 13:00:08;;;;;;;3.42;1.80;;;;;;;;;;5061834;28;20227;-44
2023/07/17 13:02:35;;;;;;;2.78;1.67;;;;;;;;;;5062532;28;20711;-43
2023/07/17 13:05:03;;;;;;;1.58;1.35;;;;;;;;;;5059901;28;20258;-43
2023/07/17 13:07:30;;;;;;;1.60;1.45;;;;;;;;;;5061982;28;20704;-43
2023/07/17 13:09:57;;;;;;;2.88;1.60;;;;;;;;;;5059849;28;20705;-44
2023/07/17 13:12:26;;;;;;;2.20;1.60;;;;;;;;;;5061462;28;20227;-44
2023/07/17 13:15:12;;;;;;;1.75;1.58;;;;;;;;;;5061728;28;20223;-43
2023/07/17 13:17:40;;;;;;;2.25;1.73;;;;;;;;;;5059807;28;20211;-44
2023/07/17 13:20:12;;;;;;;2.03;1.45;;;;;;;;;;5061794;28;20281;-45
2023/07/17 13:22:39;;;;;;;1.98;1.50;;;;;;;;;;5059817;28;20557;-44
2023/07/17 13:25:07;;;;;;;1.98;1.50;;;;;;;;;;5060872;28;20569;-44
2023/07/17 13:27:34;;;;;;;2.17;1.77;;;;;;;;;;5060780;28;20222;-45
2023/07/17 13:30:02;;;;;;;2.67;1.50;;;;;;;;;;5059755;28;20242;-42
2023/07/17 13:32:29;;;;;;;2.70;1.52;;;;;;;;;;5060504;28;20306;-43
2023/07/17 13:34:56;;;;;;;2.22;1.67;;;;;;;;;;5060970;28;20285;-44
2023/07/17 13:37:24;;;;;;;2.17;1.50;;;;;;;;;;5066005;28;20216;-43
2023/07/17 13:39:51;;;;;;;5.35;1.80;;;;;;;;;;5065421;28;20227;-45
2023/07/17 13:42:18;;;;;;;2.30;1.80;;;;;;;;;;5065947;28;20226;-43
2023/07/17 13:44:45;;;;;;;1.92;1.70;;;;;;;;;;5064013;28;20684;-44
2023/07/17 13:47:12;;;;;;;3.05;1.70;;;;;;;;;;5064115;28;20306;-44
2023/07/17 13:49:39;;;;;;;3.50;1.58;;;;;;;;;;5061181;28;20277;-43
2023/07/17 13:52:07;;;;;;;2.22;1.52;;;;;;;;;;5062801;28;20219;-44
2023/07/17 13:54:34;;;;;;;1.60;1.33;;;;;;;;;;5063934;28;20692;-44
2023/07/17 13:57:01;;;;;;;1.67;1.50;;;;;;;;;;5066612;28;20269;-43
2023/07/17 13:59:29;;;;;;;1.95;1.30;;;;;;;;;;5066152;28;20243;-43
2023/07/17 14:01:56;;;;;;;2.13;1.45;;;;;;;;;;5063189;28;20211;-43
2023/07/17 14:04:23;;;;;;;1.98;1.60;;;;;;;;;;5074490;28;20227;-43
2023/07/17 14:06:51;;;;;;;2.42;1.70;;;;;;;;;;5069387;28;20227;-43
2023/07/17 14:09:18;;;;;;;2.13;1.48;;;;;;;;;;5074305;28;20257;-44
2023/07/17 14:11:45;;;;;;;1.65;1.50;;;;;;;;;;5061497;28;20228;-45
2023/07/17 14:14:12;;;;;;;1.85;1.48;;;;;;;;;;5054676;28;20247;-44
2023/07/17 14:16:39;;;;;;;2.47;1.40;;;;;;;;;;5068993;28;20226;-43
2023/07/17 14:19:06;;;;;;;1.70;1.50;;;;;;;;;;5074043;28;20596;-45
2023/07/17 14:21:34;;;;;;;2.95;1.70;;;;;;;;;;5073832;28;20250;-42
2023/07/17 14:24:01;;;;;;;1.58;1.20;;;;;;;;;;5073591;28;20234;-41
2023/07/17 14:26:28;;;;;;;5.82;1.55;;;;;;;;;;5074241;28;20723;-42
2023/07/17 14:28:55;;;;;;;2.35;1.50;;;;;;;;;;5074137;28;20227;-40
2023/07/17 14:31:22;;;;;;;1.80;1.58;;;;;;;;;;5074236;28;20536;-40
2023/07/17 14:33:49;;;;;;;2.75;2.00;;;;;;;;;;5074316;28;20223;-43
2023/07/17 14:36:17;;;;;;;2.80;1.50;;;;;;;;;;5073556;28;20313;-44
2023/07/17 14:38:44;;;;;;;2.88;1.70;;;;;;;;;;5072625;28;20235;-43
2023/07/17 14:41:11;;;;;;;5.13;1.85;;;;;;;;;;5073511;28;20242;-43
2023/07/17 14:43:38;;;;;;;2.08;1.67;;;;;;;;;;5074146;28;20719;-43
2023/07/17 14:46:06;;;;;;;5.40;1.83;;;;;;;;;;5073381;28;20519;-43
2023/07/17 14:48:33;;;;;;;1.85;1.50;;;;;;;;;;5073843;28;20288;-43